Aérodrome :
LOGIN :

S'inscrire | Disclaimer

   EN    FR    IT 

 










Légende :    VFR   VFR Marginal   IFR   IFR Intensif   IFR Très Intensif
Visi : 
Plafond : 
>= 8 km
>= 3000ft
5 à 8 km
1000 à 3000 ft
1500m à 5 km
500 à 1000 ft
800 à 1500m
200 à 500 ft
< 800m
< 200 ft
Symboles :   Orages  Brouillard  Fortes neiges  Fortes précipitations  Vent > 20 kt
SIGMETs :   Divers  Orages  Givrage  Turbulence  Onde Orograph.  Cendres Volcan.







- Altitude de l'aérodrome : 194 ft


EBCV - Chièvres

DERNIER METAR :
  • 231625Z AUTO 21009KT 9999 OVC014/// 13/12 Q1021 GRN

METARs EXPIRÉS :
  • 231555Z AUTO 21009KT 9000 OVC014/// 12/12 Q1020 GRN
  • 231552Z AUTO 20009KT 9999 OVC014/// 12/12 Q1020 GRN
  • 231525Z AUTO 21008KT 6000 BR OVC005/// 12/12 Q1021 YLO
  • 231503Z AUTO 21007KT 1600 -RA OVC007/// 12/12 Q1021 YLO
  • 231425Z AUTO 21008KT 4500 BR OVC005/// 12/12 Q1021 YLO
  • 231355Z AUTO 22007KT 4200 DZ OVC005/// 12/12 Q1021 YLO

Prévision TAF périmée.
Pas de NOTAMs connus pour ce terrain.



MET'MAP, la Météo Aéronautique d'un coup d'oeil ! - Copyright ORBIFLY Décembre 2007 - Disclaimer

ORBIFLY MET'MAP TEAM :

Programmation & Développement : Alexandra Zaïnal
Conception & Développement : Baudouin d'Aumeries
Co-Programmation & Développement : Marc-Olivier Méhu
Soutien technique & logistique : Manuel Goepfert

Contact : metmap@orbifly.com




SOURCES & CREDITS :

   NOAA